Time;durP1;ratioP1;P1;durP2;ratioP2;P2;SDS_P1;SDS_P2;PMS_P1;PMS_P2;Temp;Humidity;BMP_temperature;BMP_pressure;BME280_temperature;BME280_humidity;BME280_pressure;Samples;Min_cycle;Max_cycle;Signal;HPM_P1;HPM_P2
2021/04/26 00:01:57;;;;;;;5.00;3.22;;;4.60;62.20;;;;;;4962900;28;20133;-74
2021/04/26 00:04:23;;;;;;;6.50;3.13;;;4.60;62.40;;;;;;4961946;28;20046;-74
2021/04/26 00:06:48;;;;;;;4.72;3.67;;;4.60;62.40;;;;;;4953754;28;20054;-74
2021/04/26 00:09:14;;;;;;;4.28;3.20;;;4.50;62.70;;;;;;4956773;28;20089;-74
2021/04/26 00:11:40;;;;;;;6.38;3.58;;;4.40;62.80;;;;;;4958348;28;20093;-75
2021/04/26 00:14:06;;;;;;;3.85;3.17;;;4.30;63.30;;;;;;4959880;28;20027;-74
2021/04/26 00:16:33;;;;;;;4.75;3.28;;;4.40;63.30;;;;;;4956587;28;20039;-74
2021/04/26 00:18:59;;;;;;;7.88;3.50;;;4.40;63.40;;;;;;4963835;28;21501;-75
2021/04/26 00:21:26;;;;;;;3.78;3.25;;;4.40;63.40;;;;;;4967699;28;20042;-74
2021/04/26 00:23:52;;;;;;;3.15;2.80;;;4.40;63.30;;;;;;4960287;28;20034;-74
2021/04/26 00:26:17;;;;;;;3.25;2.88;;;4.30;63.60;;;;;;4960635;28;20031;-75
2021/04/26 00:28:43;;;;;;;7.13;3.83;;;4.30;63.80;;;;;;4955522;28;21036;-73
2021/04/26 00:31:09;;;;;;;4.65;3.45;;;4.20;63.90;;;;;;4965587;28;20046;-74
2021/04/26 00:33:34;;;;;;;5.90;3.58;;;4.20;64.20;;;;;;4964500;28;20525;-74
2021/04/26 00:36:00;;;;;;;5.15;3.53;;;4.10;64.70;;;;;;4961880;28;20089;-74
2021/04/26 00:38:26;;;;;;;4.63;3.53;;;4.00;65.80;;;;;;4955214;28;20035;-73
2021/04/26 00:40:51;;;;;;;7.43;3.75;;;3.90;65.10;;;;;;4969825;28;20031;-75
2021/04/26 00:43:17;;;;;;;5.03;3.65;;;3.90;65.70;;;;;;4964346;28;20500;-74
2021/04/26 00:45:43;;;;;;;4.38;3.63;;;3.90;65.80;;;;;;4966732;28;20049;-75
2021/04/26 00:48:09;;;;;;;6.78;4.43;;;3.90;65.80;;;;;;4962729;28;20050;-74
2021/04/26 00:50:35;;;;;;;7.82;3.92;;;3.90;66.30;;;;;;4965185;28;20026;-75
2021/04/26 00:53:03;;;;;;;5.90;3.92;;;3.80;66.60;;;;;;4965785;28;20019;-75
2021/04/26 00:55:33;;;;;;;8.10;3.92;;;3.80;66.70;;;;;;4962577;28;20085;-74
2021/04/26 00:58:00;;;;;;;6.90;4.10;;;3.90;66.50;;;;;;4964978;28;20133;-75
2021/04/26 01:00:26;;;;;;;5.43;3.92;;;3.80;66.30;;;;;;4961258;28;20019;-74
2021/04/26 01:02:52;;;;;;;4.70;3.58;;;3.70;66.60;;;;;;4963258;28;20654;-74
2021/04/26 01:05:20;;;;;;;6.85;4.20;;;3.60;67.50;;;;;;4960281;28;20050;-74
2021/04/26 01:07:47;;;;;;;5.75;3.72;;;3.60;67.90;;;;;;4963331;28;20111;-74
2021/04/26 01:10:16;;;;;;;5.75;4.40;;;3.50;67.70;;;;;;4959399;28;20092;-74
2021/04/26 01:13:09;;;;;;;6.28;4.05;;;3.50;68.10;;;;;;4961833;28;20468;-74
2021/04/26 01:15:54;;;;;;;5.57;3.97;;;3.50;68.20;;;;;;4956191;28;20031;-74
2021/04/26 01:18:28;;;;;;;5.13;3.63;;;3.50;68.10;;;;;;4963542;28;20035;-75
2021/04/26 01:21:25;;;;;;;4.40;3.67;;;3.40;68.10;;;;;;4966773;28;20031;-75
2021/04/26 01:24:28;;;;;;;10.45;4.28;;;3.30;68.30;;;;;;4939336;28;20039;-75
2021/04/26 01:27:06;;;;;;;6.00;3.83;;;3.30;68.60;;;;;;4967343;28;20023;-74
2021/04/26 01:29:40;;;;;;;5.57;3.80;;;3.20;68.90;;;;;;4960470;28;20054;-73
2021/04/26 01:32:18;;;;;;;6.28;3.38;;;3.20;68.80;;;;;;4965948;28;20459;-74
2021/04/26 01:34:46;;;;;;;4.93;3.97;;;3.20;68.50;;;;;;4960983;28;20402;-75
2021/04/26 01:37:13;;;;;;;6.10;3.88;;;3.30;68.10;;;;;;4978151;28;20118;-74
2021/04/26 01:39:41;;;;;;;7.47;4.17;;;3.30;67.90;;;;;;4949735;28;20058;-74
2021/04/26 01:42:10;;;;;;;5.40;3.60;;;3.30;67.80;;;;;;4962663;28;20031;-74
2021/04/26 01:44:36;;;;;;;5.60;3.65;;;3.40;67.10;;;;;;4957967;28;20490;-74
2021/04/26 01:47:03;;;;;;;4.90;3.80;;;3.40;66.90;;;;;;4960051;28;20026;-74
2021/04/26 01:49:30;;;;;;;5.45;3.85;;;3.40;67.10;;;;;;4961799;28;20018;-72
2021/04/26 01:51:56;;;;;;;5.60;4.25;;;3.40;66.70;;;;;;4960799;28;20389;-74
2021/04/26 01:54:22;;;;;;;8.18;3.83;;;3.40;66.40;;;;;;4964329;28;20034;-75
2021/04/26 01:56:50;;;;;;;7.15;3.95;;;3.40;66.50;;;;;;4954873;28;21834;-74
2021/04/26 01:59:16;;;;;;;10.20;4.57;;;3.40;66.40;;;;;;4962139;28;20031;-74
2021/04/26 02:01:41;;;;;;;4.40;3.92;;;3.30;66.30;;;;;;4964734;28;20051;-74
2021/04/26 02:04:11;;;;;;;7.57;4.38;;;3.20;67.00;;;;;;4961206;28;20458;-73
2021/04/26 02:06:37;;;;;;;5.43;4.03;;;3.20;67.60;;;;;;4961440;28;20027;-74
2021/04/26 02:09:05;;;;;;;9.35;4.45;;;3.20;67.70;;;;;;4963794;28;20027;-74
2021/04/26 02:11:30;;;;;;;6.20;3.65;;;3.10;67.50;;;;;;4969910;28;20027;-74
2021/04/26 02:13:57;;;;;;;4.80;4.30;;;3.10;67.40;;;;;;4959951;28;20094;-74
2021/04/26 02:16:23;;;;;;;6.18;3.65;;;3.20;67.40;;;;;;4961439;28;20050;-75
2021/04/26 02:18:49;;;;;;;9.20;4.00;;;3.20;67.10;;;;;;4959183;28;20518;-74
2021/04/26 02:21:15;;;;;;;4.82;3.85;;;3.20;67.00;;;;;;4963911;28;20110;-75
2021/04/26 02:23:40;;;;;;;8.13;3.80;;;3.20;66.80;;;;;;4964739;28;20125;-75
2021/04/26 02:26:06;;;;;;;5.35;3.83;;;3.30;66.50;;;;;;4960520;28;20019;-75
2021/04/26 02:28:32;;;;;;;4.57;3.50;;;3.40;66.30;;;;;;4959944;28;20394;-74
2021/04/26 02:30:59;;;;;;;8.85;4.00;;;3.50;66.00;;;;;;4960909;28;20034;-74
2021/04/26 02:33:31;;;;;;;10.65;4.65;;;3.60;65.50;;;;;;4961147;28;20047;-75
2021/04/26 02:36:15;;;;;;;5.43;3.92;;;3.60;65.40;;;;;;4966306;28;20050;-75
2021/04/26 02:38:49;;;;;;;6.80;3.55;;;3.50;65.50;;;;;;4956670;28;20034;-75
2021/04/26 02:41:19;;;;;;;4.47;3.70;;;3.50;65.30;;;;;;4958654;28;20117;-74
2021/04/26 02:43:48;;;;;;;6.60;3.72;;;3.60;64.90;;;;;;4959003;28;20069;-74
2021/04/26 02:46:15;;;;;;;7.18;4.10;;;3.60;64.90;;;;;;4959231;28;20026;-74
2021/04/26 02:48:45;;;;;;;6.50;3.50;;;3.60;64.60;;;;;;4958977;28;20117;-73
2021/04/26 02:51:12;;;;;;;8.25;4.25;;;3.50;64.80;;;;;;4961554;28;20027;-75
2021/04/26 02:53:38;;;;;;;8.52;4.05;;;3.40;64.80;;;;;;4966965;28;20057;-75
2021/04/26 02:56:12;;;;;;;7.03;3.80;;;3.30;64.90;;;;;;4964656;28;20035;-75
2021/04/26 02:58:39;;;;;;;10.45;3.15;;;3.30;65.00;;;;;;4962907;28;20709;-75
2021/04/26 03:01:07;;;;;;;6.88;3.85;;;3.20;65.10;;;;;;4955551;28;20039;-75
2021/04/26 03:03:34;;;;;;;8.10;3.83;;;3.10;65.80;;;;;;4959491;28;20110;-74
2021/04/26 03:06:01;;;;;;;7.07;4.32;;;3.10;65.70;;;;;;4962915;28;20373;-75
2021/04/26 03:08:29;;;;;;;5.78;3.97;;;3.10;65.80;;;;;;4964141;28;20031;-75
2021/04/26 03:10:55;;;;;;;7.03;3.90;;;3.00;65.80;;;;;;4970206;28;20560;-75
2021/04/26 03:13:22;;;;;;;6.18;4.03;;;2.80;66.00;;;;;;4968652;28;20035;-75
2021/04/26 03:15:48;;;;;;;4.22;3.70;;;2.70;66.30;;;;;;4962403;28;20034;-75
2021/04/26 03:18:15;;;;;;;4.53;3.55;;;2.60;66.90;;;;;;4965561;28;20031;-74
2021/04/26 03:20:42;;;;;;;4.10;3.70;;;2.60;67.10;;;;;;4969182;28;20023;-75
2021/04/26 03:23:09;;;;;;;4.78;3.53;;;2.60;67.40;;;;;;4965076;28;20098;-73
2021/04/26 03:25:36;;;;;;;5.18;4.15;;;2.60;67.40;;;;;;4962842;28;20409;-74
2021/04/26 03:28:04;;;;;;;8.13;4.10;;;2.50;67.70;;;;;;4962636;28;20015;-74
2021/04/26 03:30:30;;;;;;;6.07;4.30;;;2.50;67.50;;;;;;4975100;28;20430;-75
2021/04/26 03:32:56;;;;;;;7.75;4.40;;;2.50;67.60;;;;;;4965100;28;20073;-74
2021/04/26 03:35:23;;;;;;;8.02;4.35;;;2.40;67.70;;;;;;4963588;28;20730;-75
2021/04/26 03:37:51;;;;;;;7.35;4.25;;;2.40;68.20;;;;;;4966237;28;20030;-74
2021/04/26 03:40:20;;;;;;;6.37;3.83;;;2.40;67.70;;;;;;4968662;28;20027;-75
2021/04/26 03:42:46;;;;;;;7.45;4.22;;;2.40;67.90;;;;;;4961574;28;20390;-73
2021/04/26 03:45:16;;;;;;;6.05;4.05;;;2.30;68.30;;;;;;4962596;28;20043;-75
2021/04/26 03:47:45;;;;;;;6.47;4.18;;;2.30;68.30;;;;;;4964179;28;20025;-75
2021/04/26 03:50:12;;;;;;;6.60;4.00;;;2.30;68.10;;;;;;4960835;28;20033;-75
2021/04/26 03:52:39;;;;;;;6.63;4.78;;;2.10;68.40;;;;;;4961108;28;20113;-75
2021/04/26 03:55:06;;;;;;;8.02;4.05;;;1.90;69.70;;;;;;4961166;28;20030;-74
2021/04/26 03:57:32;;;;;;;10.13;5.32;;;1.80;71.50;;;;;;4969956;28;20039;-74
2021/04/26 03:59:57;;;;;;;4.78;3.85;;;1.80;71.00;;;;;;4965940;28;20629;-74
2021/04/26 04:02:27;;;;;;;6.70;4.35;;;1.90;70.50;;;;;;4971404;28;20046;-74
2021/04/26 04:04:54;;;;;;;4.85;3.70;;;2.00;70.30;;;;;;4962098;28;20097;-75
2021/04/26 04:07:19;;;;;;;7.93;4.57;;;2.00;70.00;;;;;;4964459;28;20069;-75
2021/04/26 04:09:45;;;;;;;8.43;5.72;;;2.10;70.10;;;;;;4972050;28;20050;-73
2021/04/26 04:12:11;;;;;;;7.63;4.45;;;2.10;70.10;;;;;;4967540;28;20065;-74
2021/04/26 04:14:36;;;;;;;8.30;4.93;;;2.10;70.20;;;;;;4962604;28;20126;-75
2021/04/26 04:17:07;;;;;;;7.28;4.60;;;2.10;69.90;;;;;;4964551;28;20093;-74
2021/04/26 04:19:33;;;;;;;4.45;4.07;;;2.00;70.20;;;;;;4962625;28;20109;-74
2021/04/26 04:21:59;;;;;;;5.07;4.13;;;2.10;70.00;;;;;;4970986;28;20090;-73
2021/04/26 04:24:25;;;;;;;8.07;4.97;;;2.10;70.00;;;;;;4960257;28;20034;-74
2021/04/26 04:26:50;;;;;;;5.82;4.35;;;2.10;69.90;;;;;;4963466;28;21003;-74
2021/04/26 04:29:16;;;;;;;7.32;4.80;;;2.10;69.90;;;;;;4979752;28;20401;-74
2021/04/26 04:31:42;;;;;;;8.82;5.60;;;2.10;70.10;;;;;;4961551;28;20624;-75
2021/04/26 04:34:07;;;;;;;7.13;4.20;;;2.10;70.10;;;;;;4964342;28;20437;-74
2021/04/26 04:36:33;;;;;;;11.75;5.00;;;2.10;69.80;;;;;;4965836;28;20514;-74
2021/04/26 04:38:59;;;;;;;5.47;4.22;;;2.00;69.80;;;;;;4965409;28;20027;-74
2021/04/26 04:41:24;;;;;;;4.97;4.07;;;2.00;70.00;;;;;;4964357;28;20038;-74
2021/04/26 04:43:50;;;;;;;8.13;3.47;;;2.00;70.50;;;;;;4967507;28;20083;-75
2021/04/26 04:46:17;;;;;;;6.32;5.10;;;1.90;70.80;;;;;;4956595;28;20130;-73
2021/04/26 04:48:44;;;;;;;6.20;4.63;;;2.00;71.00;;;;;;4954796;28;20110;-75
2021/04/26 04:51:09;;;;;;;5.50;4.80;;;2.00;71.10;;;;;;4967389;28;20034;-74
2021/04/26 04:53:35;;;;;;;6.13;4.57;;;2.20;70.90;;;;;;4962548;28;20034;-75
2021/04/26 04:56:01;;;;;;;8.85;4.97;;;2.30;70.80;;;;;;4958216;28;20161;-75
2021/04/26 04:58:26;;;;;;;5.80;4.88;;;2.30;70.90;;;;;;4963993;28;20041;-75
2021/04/26 05:00:52;;;;;;;6.68;5.18;;;2.40;70.70;;;;;;4961836;28;20138;-75
2021/04/26 05:03:18;;;;;;;13.80;4.82;;;2.40;71.00;;;;;;4963513;28;20548;-75
2021/04/26 05:05:43;;;;;;;4.95;4.45;;;2.40;71.30;;;;;;4960400;28;20053;-75
2021/04/26 05:08:10;;;;;;;8.50;5.18;;;2.50;71.20;;;;;;4967086;28;20043;-74
2021/04/26 05:10:36;;;;;;;9.95;4.45;;;2.60;71.10;;;;;;4964662;28;20034;-75
2021/04/26 05:13:02;;;;;;;10.02;4.60;;;2.60;71.30;;;;;;4962803;28;20022;-74
2021/04/26 05:15:28;;;;;;;6.03;4.43;;;2.60;71.30;;;;;;4957542;28;20030;-75
2021/04/26 05:17:54;;;;;;;7.40;5.10;;;2.80;71.10;;;;;;4963153;28;20505;-74
2021/04/26 05:20:21;;;;;;;5.47;4.68;;;2.90;71.20;;;;;;4967163;28;20030;-75
2021/04/26 05:22:47;;;;;;;5.97;4.35;;;2.90;71.40;;;;;;4961286;28;20552;-75
2021/04/26 05:25:13;;;;;;;14.35;4.88;;;2.90;71.70;;;;;;4955892;28;20039;-75
2021/04/26 05:27:38;;;;;;;7.80;5.13;;;3.00;72.00;;;;;;4969040;28;20025;-75
2021/04/26 05:30:05;;;;;;;5.90;4.13;;;3.10;72.30;;;;;;4959375;28;20106;-73
2021/04/26 05:32:31;;;;;;;6.65;4.88;;;3.10;72.40;;;;;;4956685;28;20078;-74
2021/04/26 05:34:57;;;;;;;8.68;5.28;;;3.20;72.60;;;;;;4958264;28;20039;-74
2021/04/26 05:37:22;;;;;;;7.30;5.38;;;3.20;72.00;;;;;;4968064;28;20532;-74
2021/04/26 05:39:48;;;;;;;10.63;5.85;;;3.30;72.40;;;;;;4962520;28;20035;-74
2021/04/26 05:42:14;;;;;;;8.52;6.00;;;3.40;72.10;;;;;;4963608;28;20039;-75
2021/04/26 05:44:40;;;;;;;8.45;5.68;;;3.60;71.50;;;;;;4954984;28;20148;-75
2021/04/26 05:47:05;;;;;;;6.03;5.03;;;3.70;72.40;;;;;;4953431;28;20478;-74
2021/04/26 05:49:31;;;;;;;6.03;4.90;;;3.80;70.10;;;;;;4954651;28;20087;-75
2021/04/26 05:51:57;;;;;;;8.27;5.40;;;3.90;70.70;;;;;;4953775;28;20023;-74
2021/04/26 05:54:22;;;;;;;10.68;5.70;;;3.90;70.10;;;;;;4953685;28;20114;-75
2021/04/26 05:56:48;;;;;;;9.18;6.13;;;4.00;69.70;;;;;;4964329;28;20038;-74
2021/04/26 05:59:14;;;;;;;10.00;5.25;;;4.10;69.30;;;;;;4983117;28;20727;-73
2021/04/26 06:01:39;;;;;;;8.10;5.63;;;4.20;68.50;;;;;;4957210;28;20038;-75
2021/04/26 06:04:05;;;;;;;10.73;5.88;;;4.30;68.70;;;;;;4958853;28;20061;-75
2021/04/26 06:06:31;;;;;;;9.45;5.85;;;4.30;69.80;;;;;;4948855;28;20185;-74
2021/04/26 06:08:57;;;;;;;9.80;5.78;;;4.40;69.60;;;;;;4949395;28;20093;-74
2021/04/26 06:11:23;;;;;;;5.85;5.30;;;4.60;65.50;;;;;;4953071;28;20038;-75
2021/04/26 06:13:48;;;;;;;5.43;4.90;;;4.80;64.60;;;;;;4959418;28;20041;-75
2021/04/26 06:16:14;;;;;;;7.35;5.65;;;4.90;63.60;;;;;;4963541;28;20030;-75
2021/04/26 06:18:40;;;;;;;11.20;6.57;;;5.00;64.00;;;;;;4958268;28;20118;-75
2021/04/26 06:21:05;;;;;;;9.75;6.22;;;5.10;66.30;;;;;;4967132;28;20034;-75
2021/04/26 06:23:31;;;;;;;9.07;5.10;;;5.10;64.40;;;;;;4960562;28;20367;-74
2021/04/26 06:25:57;;;;;;;10.25;5.75;;;5.30;65.50;;;;;;4952756;28;20022;-75
2021/04/26 06:28:22;;;;;;;9.55;5.82;;;5.40;63.40;;;;;;4958893;28;20035;-75
2021/04/26 06:30:48;;;;;;;16.05;6.38;;;5.50;64.20;;;;;;4957059;28;20043;-75
2021/04/26 06:33:17;;;;;;;7.00;5.30;;;5.50;63.10;;;;;;4962352;28;20054;-74
2021/04/26 06:35:48;;;;;;;9.18;5.53;;;5.50;62.80;;;;;;4958386;28;20057;-74
2021/04/26 06:38:14;;;;;;;8.52;5.70;;;5.70;63.60;;;;;;4967401;28;20023;-75
2021/04/26 06:40:41;;;;;;;8.23;5.18;;;5.80;65.40;;;;;;4969376;28;20029;-75
2021/04/26 06:43:08;;;;;;;7.45;5.45;;;5.90;62.10;;;;;;4962175;28;20634;-74
2021/04/26 06:45:34;;;;;;;11.00;4.93;;;5.90;62.40;;;;;;4965563;28;20022;-74
2021/04/26 06:47:59;;;;;;;11.52;5.38;;;5.90;60.10;;;;;;4965874;28;20043;-73
2021/04/26 06:50:26;;;;;;;5.93;5.32;;;6.00;61.60;;;;;;4969217;28;20057;-73
2021/04/26 06:52:54;;;;;;;8.95;5.20;;;6.00;61.60;;;;;;4968889;28;20037;-75
2021/04/26 06:55:20;;;;;;;7.53;5.85;;;6.00;61.30;;;;;;4962847;28;20026;-75
2021/04/26 06:57:47;;;;;;;8.02;5.30;;;6.10;60.80;;;;;;4967016;28;20122;-75
2021/04/26 07:00:13;;;;;;;9.63;5.40;;;6.20;61.90;;;;;;4966444;28;20031;-74
2021/04/26 07:02:39;;;;;;;8.35;5.63;;;6.40;62.10;;;;;;4966415;28;20027;-74
2021/04/26 07:05:06;;;;;;;8.75;5.75;;;6.50;63.30;;;;;;4964272;28;20489;-73
2021/04/26 07:07:32;;;;;;;9.57;5.97;;;6.60;60.70;;;;;;4970335;28;20022;-75
2021/04/26 07:09:58;;;;;;;9.05;5.65;;;6.60;60.50;;;;;;4968310;28;20050;-74
2021/04/26 07:12:23;;;;;;;8.75;5.80;;;6.50;59.90;;;;;;4971320;28;20489;-73
2021/04/26 07:14:49;;;;;;;7.63;5.65;;;6.70;60.80;;;;;;4961738;28;20044;-75
2021/04/26 07:17:15;;;;;;;5.35;4.60;;;6.80;59.80;;;;;;4969578;28;20042;-73
2021/04/26 07:19:40;;;;;;;7.43;5.40;;;6.90;57.20;;;;;;4968124;28;20023;-74
2021/04/26 07:22:06;;;;;;;7.28;5.50;;;7.00;57.80;;;;;;4970067;28;20048;-74
2021/04/26 07:24:32;;;;;;;8.68;5.95;;;7.10;59.00;;;;;;4959249;28;20478;-73
2021/04/26 07:26:57;;;;;;;9.07;5.97;;;7.10;59.00;;;;;;4969413;28;20101;-73
2021/04/26 07:29:23;;;;;;;11.40;5.72;;;7.10;58.10;;;;;;4969905;28;20677;-74
2021/04/26 07:31:49;;;;;;;8.13;5.82;;;7.20;59.40;;;;;;4962773;28;20097;-74
2021/04/26 07:34:15;;;;;;;7.10;4.85;;;7.20;56.70;;;;;;4962072;28;20552;-74
2021/04/26 07:36:40;;;;;;;10.85;5.90;;;7.30;57.20;;;;;;4965875;28;20101;-74
2021/04/26 07:39:07;;;;;;;9.77;5.57;;;7.40;55.70;;;;;;4971369;28;20026;-74
2021/04/26 07:41:32;;;;;;;9.85;6.00;;;7.50;59.40;;;;;;4963128;28;20038;-74
2021/04/26 07:43:58;;;;;;;6.45;5.35;;;7.70;58.40;;;;;;4961400;28;20030;-74
2021/04/26 07:46:24;;;;;;;9.35;5.53;;;7.70;59.60;;;;;;4961423;28;20486;-73
2021/04/26 07:48:50;;;;;;;13.02;6.03;;;7.80;56.00;;;;;;4962247;28;20393;-74
2021/04/26 07:51:16;;;;;;;9.30;6.43;;;7.90;57.30;;;;;;4963671;28;23772;-74
2021/04/26 07:53:41;;;;;;;8.88;5.30;;;7.80;55.70;;;;;;4966572;28;20375;-74
2021/04/26 07:56:07;;;;;;;7.47;4.88;;;7.90;57.10;;;;;;4967186;28;20105;-74
2021/04/26 07:58:34;;;;;;;10.43;5.22;;;8.00;55.00;;;;;;4965929;28;20031;-74
2021/04/26 08:00:59;;;;;;;7.93;6.03;;;8.10;56.60;;;;;;4966815;28;20397;-75
2021/04/26 08:03:25;;;;;;;7.63;5.43;;;8.20;58.10;;;;;;4966587;28;20070;-75
2021/04/26 08:05:52;;;;;;;9.93;5.70;;;8.50;56.30;;;;;;4965342;28;20102;-74
2021/04/26 08:08:18;;;;;;;8.02;5.47;;;8.60;55.50;;;;;;4967130;28;20035;-74
2021/04/26 08:10:44;;;;;;;9.43;5.68;;;8.70;58.10;;;;;;4970036;28;20151;-74
2021/04/26 08:13:10;;;;;;;7.03;5.85;;;8.70;57.20;;;;;;4966182;28;20969;-75
2021/04/26 08:15:36;;;;;;;6.30;5.47;;;8.90;57.00;;;;;;4967533;28;20035;-74
2021/04/26 08:18:02;;;;;;;11.02;6.18;;;9.00;58.30;;;;;;4968541;28;20026;-74
2021/04/26 08:20:28;;;;;;;6.88;5.30;;;9.00;57.30;;;;;;4962504;28;20038;-75
2021/04/26 08:22:54;;;;;;;11.25;6.22;;;9.10;58.00;;;;;;4959748;28;20841;-73
2021/04/26 08:25:20;;;;;;;9.70;5.05;;;9.10;58.90;;;;;;4963291;28;20034;-74
2021/04/26 08:27:45;;;;;;;9.93;6.32;;;9.10;54.20;;;;;;4968926;28;20047;-74
2021/04/26 08:30:12;;;;;;;10.80;5.75;;;9.20;59.50;;;;;;4963902;28;20102;-75
2021/04/26 08:32:37;;;;;;;9.43;6.00;;;9.40;59.00;;;;;;4969510;28;20111;-75
2021/04/26 08:35:04;;;;;;;8.23;5.50;;;9.40;58.70;;;;;;4959569;28;20592;-74
2021/04/26 08:37:30;;;;;;;8.40;5.57;;;9.40;56.60;;;;;;4966447;28;20450;-75
2021/04/26 08:39:56;;;;;;;10.55;5.75;;;9.50;56.70;;;;;;4963401;28;20030;-73
2021/04/26 08:42:21;;;;;;;7.20;6.00;;;9.60;59.30;;;;;;4969853;28;20086;-75
2021/04/26 08:44:47;;;;;;;7.28;5.57;;;9.70;57.80;;;;;;4960716;28;20035;-75
2021/04/26 08:47:14;;;;;;;6.95;5.13;;;9.70;59.50;;;;;;4968003;28;20019;-74
2021/04/26 08:49:40;;;;;;;7.95;5.15;;;9.70;57.10;;;;;;4966180;28;20023;-75
2021/04/26 08:52:07;;;;;;;8.73;5.28;;;9.80;56.00;;;;;;4969227;28;20117;-75
2021/04/26 08:54:33;;;;;;;7.90;5.82;;;9.90;56.20;;;;;;4963431;28;20073;-75
2021/04/26 08:56:59;;;;;;;12.00;5.55;;;10.00;56.90;;;;;;4968362;28;20030;-75
2021/04/26 08:59:25;;;;;;;7.47;5.57;;;10.10;57.30;;;;;;4961556;28;20106;-75
2021/04/26 09:02:05;;;;;;;8.80;5.40;;;10.20;56.70;;;;;;4966412;28;20047;-74
2021/04/26 09:04:44;;;;;;;9.20;5.78;;;10.20;55.70;;;;;;4967266;28;20034;-74
2021/04/26 09:07:12;;;;;;;8.93;6.65;;;10.20;56.90;;;;;;4968711;28;20136;-74
2021/04/26 09:09:43;;;;;;;9.25;5.35;;;10.30;58.90;;;;;;4962099;28;20429;-75
2021/04/26 09:12:14;;;;;;;7.03;5.78;;;10.30;52.00;;;;;;4983309;28;20038;-74
2021/04/26 09:14:48;;;;;;;7.97;5.70;;;10.40;55.90;;;;;;4965292;28;20034;-74
2021/04/26 09:17:33;;;;;;;11.50;5.88;;;10.40;53.90;;;;;;4969148;28;20026;-75
2021/04/26 09:20:19;;;;;;;5.90;5.20;;;10.60;56.20;;;;;;4965371;28;20655;-74
2021/04/26 09:23:00;;;;;;;12.23;5.68;;;10.70;54.80;;;;;;4967671;28;20037;-74
2021/04/26 09:25:32;;;;;;;10.48;5.50;;;10.80;56.40;;;;;;4967469;28;20031;-73
2021/04/26 09:28:06;;;;;;;6.63;5.22;;;10.90;51.00;;;;;;4963882;28;20027;-73
2021/04/26 09:30:52;;;;;;;6.15;4.90;;;10.80;56.40;;;;;;4982624;28;20042;-73
2021/04/26 09:33:19;;;;;;;8.77;5.97;;;10.90;50.80;;;;;;4965509;28;20023;-74
2021/04/26 09:35:55;;;;;;;8.73;5.28;;;11.10;54.40;;;;;;4965967;28;20422;-75
2021/04/26 09:38:29;;;;;;;8.38;5.40;;;11.00;50.60;;;;;;4954492;28;20028;-73
2021/04/26 09:41:07;;;;;;;8.98;5.75;;;11.00;50.30;;;;;;4961292;28;20030;-74
2021/04/26 09:43:33;;;;;;;7.45;5.35;;;11.30;53.20;;;;;;4964005;28;20034;-73
2021/04/26 09:45:59;;;;;;;7.80;5.50;;;11.30;51.30;;;;;;4968323;28;20027;-74
2021/04/26 09:48:27;;;;;;;5.55;5.05;;;11.30;47.30;;;;;;4963027;28;20518;-74
2021/04/26 09:50:56;;;;;;;9.20;5.55;;;11.40;51.50;;;;;;4966405;28;20046;-74
2021/04/26 09:53:24;;;;;;;6.25;4.75;;;11.50;53.40;;;;;;4964840;28;20042;-73
2021/04/26 09:55:52;;;;;;;6.80;5.45;;;11.50;51.60;;;;;;4966037;28;20027;-74
2021/04/26 09:58:18;;;;;;;8.77;5.22;;;11.60;51.90;;;;;;4965999;28;20031;-74
2021/04/26 10:00:46;;;;;;;6.45;4.90;;;11.60;47.40;;;;;;4966590;28;20031;-74
2021/04/26 10:03:13;;;;;;;6.97;4.57;;;11.50;47.00;;;;;;4980846;28;20490;-74
2021/04/26 10:05:43;;;;;;;7.82;5.40;;;11.50;48.10;;;;;;4967223;28;20482;-74
2021/04/26 10:08:11;;;;;;;9.20;4.68;;;11.60;49.00;;;;;;4965951;28;20167;-74
2021/04/26 10:10:39;;;;;;;6.95;4.60;;;11.70;48.00;;;;;;4968132;28;20520;-73
2021/04/26 10:13:04;;;;;;;6.30;5.00;;;11.80;49.60;;;;;;4966840;28;20528;-74
2021/04/26 10:15:30;;;;;;;13.13;5.40;;;11.80;49.20;;;;;;4966060;28;20166;-74
2021/04/26 10:17:58;;;;;;;8.27;5.72;;;11.80;46.70;;;;;;4964953;28;20069;-74
2021/04/26 10:20:42;;;;;;;9.57;5.25;;;11.80;48.60;;;;;;4964299;28;20041;-73
2021/04/26 10:23:33;;;;;;;6.70;4.30;;;11.90;48.00;;;;;;4961880;28;20031;-73
2021/04/26 10:25:58;;;;;;;9.88;4.50;;;11.90;48.50;;;;;;4959049;28;20086;-75
2021/04/26 10:28:38;;;;;;;4.63;3.50;;;11.90;45.10;;;;;;4951773;28;20030;-73
2021/04/26 10:31:05;;;;;;;6.10;4.07;;;12.10;46.30;;;;;;4947854;28;20035;-74
2021/04/26 10:33:56;;;;;;;4.95;3.65;;;12.20;48.20;;;;;;4960707;28;20035;-73
2021/04/26 10:36:40;;;;;;;5.20;4.60;;;12.30;49.80;;;;;;4965006;28;20158;-74
2021/04/26 10:39:11;;;;;;;6.70;4.43;;;12.30;45.40;;;;;;4965147;28;20026;-75
2021/04/26 10:41:46;;;;;;;8.88;4.90;;;12.30;48.40;;;;;;4963880;28;20038;-74
2021/04/26 10:44:12;;;;;;;6.25;4.45;;;12.40;48.40;;;;;;4966371;28;20031;-74
2021/04/26 10:46:38;;;;;;;5.93;4.80;;;12.40;47.30;;;;;;4966704;28;20462;-74
2021/04/26 10:49:03;;;;;;;6.00;4.63;;;12.30;44.80;;;;;;4979265;28;20065;-75
2021/04/26 10:51:30;;;;;;;6.78;4.70;;;12.20;45.80;;;;;;4962556;28;20027;-75
2021/04/26 10:53:55;;;;;;;4.85;4.22;;;12.30;47.50;;;;;;4959764;28;20504;-75
2021/04/26 10:56:26;;;;;;;5.95;4.80;;;12.30;47.40;;;;;;4966420;28;20031;-74
2021/04/26 10:59:18;;;;;;;8.07;5.18;;;12.30;43.80;;;;;;4966032;28;20121;-74
2021/04/26 11:01:53;;;;;;;5.28;4.32;;;12.30;41.00;;;;;;4966459;28;20049;-75
2021/04/26 11:04:19;;;;;;;9.27;4.80;;;12.30;43.30;;;;;;4963491;28;20505;-74
2021/04/26 11:07:20;;;;;;;8.05;4.60;;;12.30;39.40;;;;;;4968335;28;20029;-75
2021/04/26 11:09:46;;;;;;;8.05;4.35;;;12.50;42.90;;;;;;4942006;28;20089;-74
2021/04/26 11:12:33;;;;;;;8.48;4.47;;;12.70;43.20;;;;;;4968285;28;20102;-74
2021/04/26 11:15:18;;;;;;;6.93;4.63;;;12.60;39.50;;;;;;4965713;28;20027;-75
2021/04/26 11:17:45;;;;;;;9.10;5.03;;;12.70;45.50;;;;;;4966512;28;20039;-75
2021/04/26 11:20:13;;;;;;;4.72;4.18;;;12.70;46.00;;;;;;4963444;28;20023;-75
2021/04/26 11:22:40;;;;;;;6.93;5.00;;;12.70;43.80;;;;;;4966473;28;20529;-75
2021/04/26 11:25:09;;;;;;;10.25;4.90;;;12.80;45.10;;;;;;4967450;28;20406;-74
2021/04/26 11:27:36;;;;;;;6.30;4.55;;;12.70;39.10;;;;;;4971270;28;20105;-75
2021/04/26 11:30:02;;;;;;;7.22;4.07;;;12.90;47.10;;;;;;4968165;28;20049;-74
2021/04/26 11:32:28;;;;;;;4.95;3.80;;;12.80;40.00;;;;;;4969222;28;20078;-75
2021/04/26 11:34:56;;;;;;;6.95;4.20;;;13.00;44.70;;;;;;4964661;28;20030;-75
2021/04/26 11:37:29;;;;;;;6.13;3.90;;;13.00;43.30;;;;;;4969496;28;20041;-74
2021/04/26 11:39:55;;;;;;;5.75;4.32;;;13.10;40.90;;;;;;4969147;28;20497;-75
2021/04/26 11:42:30;;;;;;;5.70;4.30;;;12.90;38.40;;;;;;4970945;28;20030;-75
2021/04/26 11:44:56;;;;;;;5.50;3.80;;;12.90;39.50;;;;;;4967475;28;20031;-75
2021/04/26 11:47:23;;;;;;;7.53;5.35;;;12.90;40.60;;;;;;4970864;28;20034;-73
2021/04/26 11:49:52;;;;;;;5.07;4.10;;;13.20;40.50;;;;;;4966881;28;20054;-74
2021/04/26 11:52:20;;;;;;;6.20;4.40;;;13.00;42.30;;;;;;4969062;28;20613;-74
2021/04/26 11:54:48;;;;;;;5.05;3.88;;;13.00;38.20;;;;;;4951954;28;20026;-74
2021/04/26 11:57:16;;;;;;;4.82;3.70;;;13.00;44.20;;;;;;4969910;28;20086;-75
2021/04/26 11:59:57;;;;;;;8.82;3.83;;;13.20;41.60;;;;;;4960131;28;20037;-73
2021/04/26 12:02:27;;;;;;;7.88;4.32;;;13.20;42.90;;;;;;4969309;28;20068;-75
2021/04/26 12:04:54;;;;;;;5.72;4.47;;;13.30;42.30;;;;;;4965636;28;20493;-75
2021/04/26 12:07:20;;;;;;;7.22;4.65;;;13.30;42.30;;;;;;4968651;28;20041;-74
2021/04/26 12:10:10;;;;;;;5.85;4.38;;;13.30;40.10;;;;;;4960480;28;20039;-75
2021/04/26 12:12:36;;;;;;;6.38;4.40;;;13.20;39.80;;;;;;4970601;28;20050;-75
2021/04/26 12:15:05;;;;;;;4.50;4.10;;;13.10;39.20;;;;;;4964878;28;20051;-74
2021/04/26 12:17:33;;;;;;;5.28;4.25;;;13.30;44.10;;;;;;4969436;28;20058;-74
2021/04/26 12:20:00;;;;;;;8.25;4.20;;;13.50;43.00;;;;;;4967747;28;20038;-74
2021/04/26 12:22:32;;;;;;;7.63;4.50;;;13.30;39.50;;;;;;4969696;28;20050;-75
2021/04/26 12:25:02;;;;;;;8.48;4.28;;;13.50;43.40;;;;;;4964082;28;20398;-74
2021/04/26 12:27:28;;;;;;;8.48;4.32;;;13.60;44.30;;;;;;4969789;28;20023;-75
2021/04/26 12:29:54;;;;;;;5.00;3.90;;;13.50;40.60;;;;;;4962522;28;20037;-74
2021/04/26 12:32:21;;;;;;;5.57;3.80;;;13.50;39.60;;;;;;4964421;28;20168;-74
2021/04/26 12:34:57;;;;;;;6.20;3.97;;;13.50;45.10;;;;;;4967486;28;20411;-75
2021/04/26 12:37:26;;;;;;;7.30;4.70;;;13.60;42.40;;;;;;4970078;28;20379;-75
2021/04/26 12:40:09;;;;;;;4.75;3.30;;;13.60;39.90;;;;;;4963359;28;20730;-75
2021/04/26 12:42:34;;;;;;;5.72;3.63;;;13.50;37.10;;;;;;4970006;28;20667;-74
2021/04/26 12:45:10;;;;;;;6.88;3.97;;;13.60;40.50;;;;;;4966065;28;20093;-75
2021/04/26 12:47:53;;;;;;;5.50;3.67;;;13.70;39.00;;;;;;4969456;28;20560;-75
2021/04/26 12:50:24;;;;;;;5.03;3.60;;;13.60;37.50;;;;;;4964741;28;20062;-74
2021/04/26 12:53:12;;;;;;;5.35;3.90;;;13.60;36.90;;;;;;4968311;28;20023;-74
2021/04/26 12:55:44;;;;;;;8.07;4.15;;;13.50;38.80;;;;;;4966487;28;20022;-74
2021/04/26 12:58:16;;;;;;;6.30;3.97;;;13.60;42.10;;;;;;4966816;28;20065;-75
2021/04/26 13:00:50;;;;;;;4.55;3.70;;;13.70;40.60;;;;;;4968952;28;20413;-75